createdAt,value
2023-01-10T00:01:29.136Z,49.54
2023-01-10T00:03:56.193Z,49.49
2023-01-10T00:06:23.179Z,49.44
2023-01-10T00:08:50.081Z,49.25
2023-01-10T00:11:35.899Z,49.11
2023-01-10T00:14:02.884Z,49.04
2023-01-10T00:16:29.903Z,49.06
2023-01-10T00:18:56.930Z,49.13
2023-01-10T00:21:23.885Z,49.05
2023-01-10T00:23:50.828Z,48.64
2023-01-10T00:26:17.783Z,48.63
2023-01-10T00:28:45.489Z,48.63
2023-01-10T00:31:13.962Z,48.55
2023-01-10T00:33:41.043Z,48.40
2023-01-10T00:36:08.988Z,48.37
2023-01-10T00:38:36.036Z,48.30
2023-01-10T00:41:03.766Z,48.52
2023-01-10T00:43:49.417Z,48.31
2023-01-10T00:46:16.393Z,48.40
2023-01-10T00:48:43.397Z,48.59
2023-01-10T00:51:10.296Z,48.59
2023-01-10T00:53:37.223Z,48.31
2023-01-10T00:56:04.306Z,48.33
2023-01-10T00:58:31.307Z,48.56
2023-01-10T01:00:58.367Z,48.63
2023-01-10T01:03:25.346Z,48.89
2023-01-10T01:05:52.766Z,49.11
2023-01-10T01:08:19.770Z,49.05
2023-01-10T01:10:46.727Z,49.09
2023-01-10T01:13:21.321Z,49.15
2023-01-10T01:15:48.522Z,49.28
2023-01-10T01:18:17.959Z,49.41
2023-01-10T01:20:47.712Z,49.56
2023-01-10T01:23:15.441Z,49.93
2023-01-10T01:25:42.492Z,50.07
2023-01-10T01:28:12.311Z,50.26
2023-01-10T01:30:39.276Z,50.30
2023-01-10T01:33:06.275Z,50.39
2023-01-10T01:35:33.832Z,50.50
2023-01-10T01:38:00.800Z,50.69
2023-01-10T01:40:27.788Z,51.11
2023-01-10T01:42:56.170Z,51.11
2023-01-10T01:45:23.100Z,51.38
2023-01-10T05:54:20.205Z,66.05
2023-01-10T05:56:47.196Z,64.30
2023-01-10T05:59:27.305Z,64.07
2023-01-10T06:01:55.022Z,63.47
2023-01-10T06:04:21.968Z,62.86
2023-01-10T06:06:48.934Z,62.59
2023-01-10T06:09:15.845Z,62.44
2023-01-10T06:11:42.793Z,62.25
2023-01-10T06:14:10.362Z,62.94
2023-01-10T06:16:37.311Z,63.28
2023-01-10T06:19:04.443Z,62.66
2023-01-10T06:21:31.448Z,62.32
2023-01-10T06:23:58.444Z,62.11
2023-01-10T06:26:25.577Z,61.86
2023-01-10T06:28:52.524Z,61.30
2023-01-10T06:31:22.331Z,60.95
2023-01-10T06:33:52.896Z,60.55
2023-01-10T06:36:19.927Z,60.37
2023-01-10T06:38:47.182Z,60.17
2023-01-10T06:41:14.271Z,60.01
2023-01-10T06:43:48.256Z,60.00
2023-01-10T06:46:16.949Z,59.95
2023-01-10T06:48:45.801Z,59.96
2023-01-10T06:51:14.048Z,59.93
2023-01-10T06:53:41.309Z,59.94
2023-01-10T06:56:09.948Z,59.70
2023-01-10T06:58:39.014Z,59.71
2023-01-10T07:01:17.208Z,59.69
2023-01-10T07:03:44.308Z,59.61
2023-01-10T07:06:11.677Z,59.55
2023-01-10T07:08:40.802Z,59.36
2023-01-10T07:11:08.640Z,59.28
2023-01-10T07:13:36.031Z,59.24
2023-01-10T07:16:04.668Z,58.96
2023-01-10T07:18:32.326Z,58.79
2023-01-10T07:20:59.315Z,58.72
2023-01-10T07:23:26.299Z,58.64
2023-01-10T07:25:53.240Z,58.67
2023-01-10T07:28:20.207Z,58.41
2023-01-10T07:30:47.133Z,58.10
2023-01-10T07:33:14.096Z,57.89
2023-01-10T07:35:41.115Z,57.75
2023-01-10T07:38:09.279Z,57.45
2023-01-10T07:40:36.362Z,57.24
2023-01-10T07:43:03.705Z,57.19
2023-01-10T07:45:30.898Z,56.80
2023-01-10T07:48:01.729Z,56.74
2023-01-10T07:50:30.029Z,56.82
2023-01-10T07:52:57.368Z,56.94
2023-01-10T07:55:24.475Z,56.85
2023-01-10T07:57:51.918Z,56.77
2023-01-10T08:00:19.519Z,56.50
2023-01-10T08:02:46.916Z,56.58
2023-01-10T08:05:14.749Z,56.29
2023-01-10T08:07:41.969Z,56.21
2023-01-10T08:10:09.825Z,56.01
2023-01-10T08:12:36.874Z,55.75
2023-01-10T08:15:04.191Z,55.67
2023-01-10T08:17:34.353Z,55.52
2023-01-10T08:20:01.519Z,55.47
2023-01-10T08:22:28.595Z,55.57
2023-01-10T08:24:55.652Z,55.09
2023-01-10T08:27:22.735Z,54.78
2023-01-10T08:29:49.874Z,54.69
2023-01-10T08:32:16.944Z,54.48
2023-01-10T08:34:43.979Z,54.38
2023-01-10T08:37:13.481Z,54.16
2023-01-10T08:39:40.611Z,54.11
2023-01-10T08:42:07.738Z,54.14
2023-01-10T08:44:35.026Z,54.64
2023-01-10T08:47:02.354Z,55.12
2023-01-10T08:49:29.413Z,54.61
2023-01-10T08:51:56.457Z,53.80
2023-01-10T08:54:23.518Z,53.76
2023-01-10T08:56:50.577Z,53.48
2023-01-10T08:59:18.123Z,52.99
2023-01-10T09:01:45.358Z,52.85
2023-01-10T09:04:12.596Z,51.88
2023-01-10T09:06:39.693Z,51.47
2023-01-10T09:09:06.988Z,51.61
2023-01-10T09:11:34.071Z,51.51
2023-01-10T09:14:01.113Z,52.20
2023-01-10T09:16:28.171Z,51.18
2023-01-10T09:18:55.965Z,50.78
2023-01-10T09:21:23.079Z,50.30
2023-01-10T09:23:50.040Z,50.28
2023-01-10T09:26:17.051Z,50.33
2023-01-10T09:28:44.103Z,50.38
2023-01-10T09:31:12.235Z,50.75
2023-01-10T09:33:46.805Z,51.22
2023-01-10T09:36:16.047Z,50.43
2023-01-10T09:38:44.015Z,50.03
2023-01-10T09:41:40.818Z,50.25
2023-01-10T09:44:39.656Z,50.15
2023-01-10T09:47:25.579Z,50.16
2023-01-10T09:50:15.600Z,50.13
2023-01-10T09:52:47.989Z,50.13
2023-01-10T09:55:32.480Z,49.89
2023-01-10T16:36:44.173Z,43.93
2023-01-10T16:39:22.090Z,42.33
2023-01-10T16:42:07.762Z,42.16
2023-01-10T16:44:35.012Z,42.25
2023-01-10T16:47:03.307Z,42.19
2023-01-10T16:49:32.551Z,41.72
2023-01-10T16:51:59.655Z,41.92
2023-01-10T16:54:26.893Z,42.28
2023-01-10T16:56:54.053Z,42.39
2023-01-10T16:59:21.104Z,42.22
2023-01-10T17:01:53.097Z,42.28
2023-01-10T17:04:27.415Z,42.25
2023-01-10T17:06:57.181Z,42.20
2023-01-10T17:09:28.142Z,42.09
2023-01-10T17:12:07.586Z,42.24
2023-01-10T17:14:35.790Z,42.35
2023-01-10T17:17:03.362Z,42.10
2023-01-10T17:19:30.459Z,42.25
2023-01-10T17:21:57.654Z,42.22
2023-01-10T17:24:24.990Z,42.10
2023-01-10T17:26:52.028Z,42.29
2023-01-10T17:29:19.013Z,42.19
2023-01-10T17:31:46.062Z,42.01
2023-01-10T17:34:15.250Z,41.87
2023-01-10T17:36:42.901Z,41.92
2023-01-10T17:39:10.242Z,42.01
2023-01-10T17:41:37.279Z,42.04
2023-01-10T17:44:05.644Z,42.20
2023-01-10T17:46:35.392Z,42.23
2023-01-10T17:49:03.080Z,42.06
2023-01-10T17:51:30.129Z,42.19
2023-01-10T17:53:57.453Z,41.82
2023-01-10T17:56:25.068Z,41.99
2023-01-10T17:58:53.400Z,42.21
2023-01-10T18:01:24.755Z,42.12
2023-01-10T18:03:52.946Z,42.32
2023-01-10T18:06:24.178Z,42.87
2023-01-10T18:08:52.220Z,44.38
2023-01-10T22:02:27.167Z,67.55
2023-01-10T22:04:54.433Z,64.30
2023-01-10T22:07:25.365Z,63.66
2023-01-10T22:09:52.330Z,63.41
2023-01-10T22:12:23.710Z,63.32
2023-01-10T22:14:52.456Z,63.14
2023-01-10T22:17:19.226Z,63.06
2023-01-10T22:19:46.041Z,63.01
2023-01-10T22:22:13.706Z,62.82
2023-01-10T22:24:42.065Z,62.62
2023-01-10T22:27:09.460Z,62.59
2023-01-10T22:29:37.482Z,62.50
2023-01-10T22:32:06.883Z,62.59
2023-01-10T22:34:37.334Z,62.58
2023-01-10T22:37:04.273Z,62.47
2023-01-10T22:39:31.427Z,62.36
2023-01-10T22:41:58.270Z,62.25
2023-01-10T22:44:26.076Z,61.96
2023-01-10T22:46:53.991Z,61.87
2023-01-10T22:49:21.088Z,61.79
2023-01-10T22:51:48.038Z,61.53
2023-01-10T22:54:18.028Z,61.05
2023-01-10T22:56:46.401Z,60.56
2023-01-10T23:02:01.465Z,60.06
2023-01-10T23:04:30.507Z,60.07
2023-01-10T23:06:59.603Z,59.93
2023-01-10T23:09:26.591Z,59.89
2023-01-10T23:11:53.311Z,59.80
2023-01-10T23:14:20.246Z,59.74
2023-01-10T23:16:47.455Z,59.74
2023-01-10T23:19:14.543Z,59.78
2023-01-10T23:21:41.417Z,59.81
2023-01-10T23:24:08.293Z,59.92
2023-01-10T23:26:35.810Z,60.11
2023-01-10T23:29:02.747Z,60.18
2023-01-10T23:31:31.346Z,60.32
2023-01-10T23:33:58.376Z,60.41
2023-01-10T23:36:25.223Z,60.54
2023-01-10T23:38:51.963Z,60.56
2023-01-10T23:41:21.534Z,60.63
2023-01-10T23:43:49.332Z,60.68
2023-01-10T23:46:16.324Z,60.72
2023-01-10T23:48:45.698Z,60.90
2023-01-10T23:51:13.043Z,61.06
2023-01-10T23:53:40.186Z,61.09
2023-01-10T23:56:11.721Z,60.98
2023-01-10T23:58:38.761Z,60.86
